Time;durP1;ratioP1;P1;durP2;ratioP2;P2;SDS_P1;SDS_P2;PMS_P1;PMS_P2;Temp;Humidity;BMP_temperature;BMP_pressure;BME280_temperature;BME280_humidity;BME280_pressure;Samples;Min_cycle;Max_cycle;Signal;HPM_P1;HPM_P2
2021/06/29 00:01:03;;;;;;;10.98;9.95;;;25.20;76.20;;;;;;5034542;28;20581;-59
2021/06/29 00:03:29;;;;;;;11.07;10.13;;;24.80;78.10;;;;;;5013634;28;20045;-59
2021/06/29 00:05:55;;;;;;;10.82;9.75;;;24.80;77.70;;;;;;5034075;28;20021;-59
2021/06/29 00:08:20;;;;;;;11.63;10.52;;;24.80;76.60;;;;;;5034397;28;20017;-60
2021/06/29 00:10:47;;;;;;;11.15;10.05;;;24.90;75.60;;;;;;5033984;28;20108;-59
2021/06/29 00:13:12;;;;;;;9.90;8.90;;;24.90;74.80;;;;;;5034087;28;20253;-60
2021/06/29 00:15:38;;;;;;;10.15;9.25;;;24.90;74.80;;;;;;5033609;28;20033;-59
2021/06/29 00:18:04;;;;;;;9.90;9.02;;;24.90;75.20;;;;;;5033725;28;20044;-60
2021/06/29 00:20:30;;;;;;;10.27;9.27;;;24.80;76.10;;;;;;5033814;28;20040;-60
2021/06/29 00:22:56;;;;;;;13.65;9.73;;;24.80;76.60;;;;;;5033610;28;20033;-60
2021/06/29 00:25:22;;;;;;;10.52;9.48;;;24.70;76.70;;;;;;5033210;28;20037;-60
2021/06/29 00:27:48;;;;;;;12.02;9.80;;;24.80;76.40;;;;;;5033903;28;20034;-59
2021/06/29 00:30:14;;;;;;;11.45;9.48;;;24.80;75.90;;;;;;5033628;28;20404;-59
2021/06/29 00:32:40;;;;;;;10.25;9.25;;;24.80;75.80;;;;;;5033417;28;20492;-62
2021/06/29 00:35:07;;;;;;;10.32;9.43;;;24.80;76.20;;;;;;5033240;28;20025;-60
2021/06/29 00:37:32;;;;;;;10.68;9.70;;;24.80;75.60;;;;;;5033171;28;20540;-60
2021/06/29 00:39:58;;;;;;;10.70;9.70;;;24.80;75.90;;;;;;5015891;28;20068;-56
2021/06/29 00:42:24;;;;;;;10.07;9.27;;;24.80;76.40;;;;;;5033662;28;20026;-59
2021/06/29 00:44:49;;;;;;;10.32;9.40;;;24.80;76.90;;;;;;5033546;28;20037;-60
2021/06/29 00:47:15;;;;;;;10.18;9.27;;;24.80;77.20;;;;;;5015198;28;20484;-58
2021/06/29 00:49:41;;;;;;;10.70;9.60;;;24.80;77.30;;;;;;5033042;28;20029;-57
2021/06/29 00:52:11;;;;;;;10.80;9.80;;;24.90;77.40;;;;;;5033352;28;20084;-53
2021/06/29 00:54:38;;;;;;;11.23;10.07;;;25.00;78.00;;;;;;5032822;28;20444;-57
2021/06/29 00:57:04;;;;;;;10.85;9.85;;;25.00;78.30;;;;;;5032337;28;20060;-58
2021/06/29 00:59:32;;;;;;;10.82;9.90;;;25.00;78.10;;;;;;5033113;28;20493;-55
2021/06/29 01:01:57;;;;;;;10.38;9.57;;;25.00;78.20;;;;;;5032697;28;20040;-58
2021/06/29 01:04:23;;;;;;;11.27;10.27;;;25.10;77.80;;;;;;5033118;28;20029;-57
2021/06/29 01:06:49;;;;;;;12.18;10.75;;;25.10;77.50;;;;;;5033549;28;20045;-55
2021/06/29 01:09:15;;;;;;;13.57;12.27;;;25.00;76.70;;;;;;5033117;28;20083;-57
2021/06/29 01:11:40;;;;;;;15.25;12.98;;;24.90;77.80;;;;;;5032983;28;20037;-58
2021/06/29 01:14:14;;;;;;;13.65;12.15;;;24.80;79.20;;;;;;5033407;28;20414;-59
2021/06/29 01:16:40;;;;;;;12.13;10.95;;;24.40;80.10;;;;;;5032742;28;20030;-55
2021/06/29 01:19:06;;;;;;;13.05;11.63;;;23.90;82.00;;;;;;5033070;28;20459;-56
2021/06/29 01:21:40;;;;;;;14.02;11.88;;;23.70;82.20;;;;;;5015790;28;20034;-55
2021/06/29 01:24:18;;;;;;;13.70;12.18;;;23.50;83.10;;;;;;5015087;28;20040;-60
2021/06/29 01:26:50;;;;;;;12.35;11.05;;;23.20;83.70;;;;;;5020100;28;20089;-53
2021/06/29 01:29:19;;;;;;;12.20;10.90;;;23.00;84.80;;;;;;5032907;28;20068;-59
2021/06/29 01:31:44;;;;;;;11.75;10.52;;;22.90;85.10;;;;;;5032569;28;20112;-56
2021/06/29 01:34:10;;;;;;;9.75;8.77;;;23.00;85.10;;;;;;5016285;28;20071;-59
2021/06/29 01:36:37;;;;;;;9.43;7.57;;;23.00;84.40;;;;;;5036468;28;20173;-57
2021/06/29 01:39:05;;;;;;;6.38;5.70;;;23.00;83.30;;;;;;5032486;28;20040;-56
2021/06/29 01:41:31;;;;;;;6.93;5.60;;;23.10;81.70;;;;;;5031885;28;20026;-58
2021/06/29 01:44:05;;;;;;;9.45;5.18;;;23.10;81.40;;;;;;5014817;28;20103;-59
2021/06/29 01:46:35;;;;;;;6.20;5.03;;;23.10;81.20;;;;;;5031711;28;20021;-56
2021/06/29 01:49:00;;;;;;;6.05;4.63;;;22.90;81.90;;;;;;5032108;28;20052;-58
2021/06/29 01:51:26;;;;;;;8.15;4.47;;;22.80;82.20;;;;;;5032183;28;20057;-57
2021/06/29 01:53:53;;;;;;;7.60;4.30;;;22.70;82.70;;;;;;5014236;28;20099;-54
2021/06/29 01:56:25;;;;;;;5.97;2.92;;;22.80;81.80;;;;;;5014068;28;20041;-54
2021/06/29 01:58:53;;;;;;;9.30;3.33;;;22.80;81.40;;;;;;5032404;28;20032;-60
2021/06/29 02:01:21;;;;;;;5.65;2.75;;;22.50;82.10;;;;;;5014578;28;20038;-59
2021/06/29 02:03:46;;;;;;;7.15;3.00;;;22.40;82.60;;;;;;5031779;28;20582;-56
2021/06/29 02:06:14;;;;;;;4.70;2.85;;;22.40;82.60;;;;;;5032038;28;20045;-56
2021/06/29 02:08:42;;;;;;;3.92;2.88;;;22.40;83.00;;;;;;5014185;28;20021;-56
2021/06/29 02:11:07;;;;;;;5.93;3.10;;;22.40;82.90;;;;;;5032237;28;20145;-57
2021/06/29 02:13:33;;;;;;;4.93;3.78;;;22.30;83.30;;;;;;5032147;28;20041;-60
2021/06/29 02:16:00;;;;;;;3.38;2.88;;;22.30;83.40;;;;;;5031187;28;20120;-58
2021/06/29 02:18:26;;;;;;;5.15;3.05;;;22.20;83.70;;;;;;5030874;28;20043;-59
2021/06/29 02:20:52;;;;;;;8.93;3.55;;;22.30;83.60;;;;;;5032375;28;20532;-55
2021/06/29 02:23:17;;;;;;;5.65;3.17;;;22.30;83.60;;;;;;5014209;28;20033;-56
2021/06/29 02:25:44;;;;;;;5.70;3.30;;;22.30;83.80;;;;;;5031884;28;20508;-52
2021/06/29 02:28:10;;;;;;;6.40;2.97;;;22.30;83.70;;;;;;5031700;28;20046;-55
2021/06/29 02:30:36;;;;;;;4.28;3.30;;;22.30;83.70;;;;;;5031897;28;20049;-57
2021/06/29 02:33:01;;;;;;;3.67;3.00;;;22.00;84.40;;;;;;5031369;28;20038;-54
2021/06/29 02:35:28;;;;;;;5.03;3.25;;;21.90;84.90;;;;;;5024302;28;20095;-57
2021/06/29 02:37:54;;;;;;;5.60;3.50;;;21.90;84.90;;;;;;5031401;28;20036;-59
2021/06/29 02:40:20;;;;;;;5.22;3.30;;;22.10;84.20;;;;;;5032022;28;20041;-58
2021/06/29 02:42:45;;;;;;;4.10;3.30;;;22.00;84.50;;;;;;5031949;28;20049;-55
2021/06/29 02:45:17;;;;;;;7.55;3.80;;;21.90;84.60;;;;;;5031860;28;20485;-56
2021/06/29 02:47:43;;;;;;;4.63;3.30;;;22.10;84.40;;;;;;5031534;28;20053;-54
2021/06/29 02:50:09;;;;;;;8.85;3.53;;;22.10;84.30;;;;;;5031619;28;20025;-55
2021/06/29 02:52:36;;;;;;;6.28;3.63;;;22.10;84.90;;;;;;5014026;28;20041;-56
2021/06/29 02:55:04;;;;;;;3.60;3.08;;;22.00;85.40;;;;;;5032606;28;20073;-57
2021/06/29 02:57:30;;;;;;;4.22;3.30;;;22.00;85.10;;;;;;5031582;28;20037;-55
2021/06/29 02:59:56;;;;;;;7.60;3.30;;;22.00;85.20;;;;;;5031557;28;20025;-54
2021/06/29 03:02:22;;;;;;;7.15;3.20;;;22.00;85.40;;;;;;5031496;28;20112;-54
2021/06/29 03:04:47;;;;;;;7.55;3.75;;;22.00;85.40;;;;;;5013918;28;20113;-51
2021/06/29 03:07:13;;;;;;;5.45;3.42;;;22.00;85.00;;;;;;5031343;28;20476;-55
2021/06/29 03:09:39;;;;;;;8.25;3.67;;;21.90;85.60;;;;;;5031217;28;20025;-57
2021/06/29 03:12:05;;;;;;;7.57;3.60;;;22.00;85.10;;;;;;5031649;28;20029;-57
2021/06/29 03:14:35;;;;;;;7.60;3.30;;;22.00;85.30;;;;;;5031247;28;20032;-53
2021/06/29 03:17:02;;;;;;;7.07;3.40;;;22.10;85.10;;;;;;5013726;28;20030;-52
2021/06/29 03:19:27;;;;;;;4.60;3.55;;;22.10;85.30;;;;;;5015324;28;20029;-53
2021/06/29 03:21:53;;;;;;;3.50;3.20;;;22.10;85.10;;;;;;5035110;28;20051;-57
2021/06/29 03:24:18;;;;;;;5.75;3.63;;;22.10;85.10;;;;;;5035933;28;20477;-55
2021/06/29 03:26:44;;;;;;;7.13;3.60;;;21.70;85.90;;;;;;5034588;28;20040;-57
2021/06/29 03:29:10;;;;;;;3.45;3.00;;;21.60;86.00;;;;;;5034811;28;20092;-56
2021/06/29 03:31:35;;;;;;;5.10;3.35;;;21.80;85.00;;;;;;5035005;28;20029;-58
2021/06/29 03:34:01;;;;;;;5.25;3.15;;;22.00;84.60;;;;;;5016474;28;20080;-57
2021/06/29 03:36:26;;;;;;;3.90;3.33;;;21.90;84.50;;;;;;5034190;28;20595;-54
2021/06/29 03:38:52;;;;;;;4.45;3.33;;;21.80;84.80;;;;;;5034506;28;20100;-53
2021/06/29 03:41:18;;;;;;;5.10;3.20;;;21.80;84.50;;;;;;5034574;28;20064;-54
2021/06/29 03:43:44;;;;;;;5.00;3.83;;;21.90;84.30;;;;;;5034272;28;20479;-57
2021/06/29 03:46:10;;;;;;;5.93;4.03;;;21.80;84.90;;;;;;5034146;28;20044;-57
2021/06/29 03:48:35;;;;;;;5.55;3.97;;;21.70;85.30;;;;;;5034257;28;20038;-53
2021/06/29 03:51:01;;;;;;;4.28;3.40;;;21.80;84.80;;;;;;5034365;28;20040;-56
2021/06/29 03:53:27;;;;;;;4.10;3.28;;;21.90;84.60;;;;;;5016797;28;20116;-57
2021/06/29 03:55:52;;;;;;;5.57;3.45;;;21.90;84.70;;;;;;5034161;28;20092;-59
2021/06/29 03:58:18;;;;;;;8.82;5.43;;;21.90;85.20;;;;;;5034366;28;20425;-59
2021/06/29 04:00:44;;;;;;;7.47;3.45;;;21.80;85.50;;;;;;5034242;28;20025;-56
2021/06/29 04:03:10;;;;;;;5.75;3.28;;;21.90;85.00;;;;;;5034086;28;20037;-57
2021/06/29 04:05:35;;;;;;;3.50;3.00;;;21.90;84.90;;;;;;5033789;28;20429;-55
2021/06/29 04:08:01;;;;;;;3.97;3.10;;;21.90;85.20;;;;;;5033929;28;20029;-54
2021/06/29 04:10:26;;;;;;;4.72;3.03;;;22.00;84.80;;;;;;5033847;28;20044;-57
2021/06/29 04:12:52;;;;;;;5.85;3.00;;;22.00;85.20;;;;;;5034050;28;20131;-60
2021/06/29 04:15:17;;;;;;;8.38;3.70;;;22.10;84.60;;;;;;5033779;28;20064;-58
2021/06/29 04:17:43;;;;;;;8.80;3.38;;;22.20;84.60;;;;;;5033763;28;20037;-56
2021/06/29 04:20:09;;;;;;;8.68;3.42;;;22.20;84.60;;;;;;5034631;28;20109;-57
2021/06/29 04:22:36;;;;;;;4.43;3.13;;;22.00;84.90;;;;;;5016643;28;20049;-54
2021/06/29 04:25:03;;;;;;;6.57;3.50;;;21.90;85.20;;;;;;5033686;28;20029;-58
2021/06/29 04:27:29;;;;;;;6.10;3.70;;;21.90;85.50;;;;;;5033186;28;20033;-58
2021/06/29 04:29:56;;;;;;;3.33;2.95;;;21.80;85.70;;;;;;5015818;28;20033;-57
2021/06/29 04:32:22;;;;;;;4.30;3.10;;;21.80;85.70;;;;;;5034315;28;20033;-57
2021/06/29 04:34:47;;;;;;;5.30;3.38;;;21.80;85.50;;;;;;5033998;28;20486;-54
2021/06/29 04:37:13;;;;;;;4.78;3.20;;;21.80;86.00;;;;;;5033439;28;20496;-59
2021/06/29 04:39:39;;;;;;;5.25;3.40;;;21.90;85.80;;;;;;5033065;28;20029;-60
2021/06/29 04:42:05;;;;;;;4.88;3.13;;;21.90;86.50;;;;;;5015739;28;20128;-54
2021/06/29 04:44:30;;;;;;;6.22;3.50;;;22.10;85.80;;;;;;5033902;28;20468;-55
2021/06/29 04:46:57;;;;;;;3.75;3.30;;;22.20;85.30;;;;;;5032986;28;20030;-57
2021/06/29 04:49:26;;;;;;;4.38;3.30;;;22.10;86.00;;;;;;5015795;28;20089;-55
2021/06/29 04:51:52;;;;;;;4.93;3.58;;;22.20;85.10;;;;;;5015466;28;20093;-58
2021/06/29 04:54:18;;;;;;;3.70;3.20;;;22.40;84.90;;;;;;5033405;28;20053;-59
2021/06/29 04:56:43;;;;;;;5.18;3.17;;;22.40;84.70;;;;;;5015069;28;20416;-57
2021/06/29 04:59:09;;;;;;;4.40;3.28;;;22.50;84.30;;;;;;5033100;28;20058;-55
2021/06/29 05:01:34;;;;;;;4.20;3.20;;;22.40;85.10;;;;;;5033177;28;20079;-56
2021/06/29 05:04:00;;;;;;;3.97;3.22;;;22.20;85.80;;;;;;5032738;28;20088;-57
2021/06/29 05:06:25;;;;;;;3.53;3.17;;;22.10;86.40;;;;;;5032962;28;20025;-57
2021/06/29 05:08:51;;;;;;;5.82;3.58;;;22.20;86.40;;;;;;5033271;28;20100;-56
2021/06/29 05:11:17;;;;;;;4.85;3.50;;;22.10;87.30;;;;;;5033329;28;20396;-54
2021/06/29 05:13:42;;;;;;;3.83;3.40;;;22.10;87.20;;;;;;5032891;28;20064;-56
2021/06/29 05:16:08;;;;;;;13.80;4.13;;;22.00;88.20;;;;;;5015316;28;20034;-56
2021/06/29 05:18:33;;;;;;;5.20;4.20;;;22.00;88.20;;;;;;5032935;28;20025;-58
2021/06/29 05:20:59;;;;;;;7.32;4.88;;;22.00;88.70;;;;;;5032767;28;20116;-56
2021/06/29 05:23:25;;;;;;;5.22;4.72;;;22.10;88.30;;;;;;5032516;28;20496;-52
2021/06/29 05:25:51;;;;;;;6.85;5.05;;;22.30;88.00;;;;;;5038280;28;20052;-57
2021/06/29 05:28:20;;;;;;;7.45;5.30;;;22.30;87.70;;;;;;5032384;28;20489;-54
2021/06/29 05:30:48;;;;;;;5.47;4.50;;;22.30;88.20;;;;;;5015326;28;20041;-57
2021/06/29 05:33:15;;;;;;;6.45;5.18;;;22.40;87.80;;;;;;5032077;28;20056;-55
2021/06/29 05:35:40;;;;;;;4.88;4.47;;;22.50;87.50;;;;;;5031742;28;20040;-57
2021/06/29 05:38:07;;;;;;;5.50;5.00;;;22.40;87.70;;;;;;5032189;28;20548;-57
2021/06/29 05:40:33;;;;;;;5.07;4.32;;;22.50;87.30;;;;;;5033050;28;20040;-55
2021/06/29 05:42:59;;;;;;;5.60;4.45;;;22.50;87.80;;;;;;5031301;28;20034;-55
2021/06/29 05:45:24;;;;;;;5.50;5.00;;;22.50;87.80;;;;;;5032223;28;20018;-55
2021/06/29 05:47:51;;;;;;;5.55;4.35;;;22.50;87.40;;;;;;5032203;28;20036;-56
2021/06/29 05:50:17;;;;;;;5.05;4.55;;;22.60;87.30;;;;;;5032574;28;20037;-56
2021/06/29 05:52:42;;;;;;;6.22;5.40;;;22.60;87.40;;;;;;5032671;28;20685;-59
2021/06/29 05:55:09;;;;;;;5.18;4.57;;;22.60;87.10;;;;;;5031987;28;20041;-59
2021/06/29 05:57:38;;;;;;;5.60;5.10;;;22.70;87.10;;;;;;5014178;28;20112;-55
2021/06/29 06:00:09;;;;;;;5.00;4.43;;;22.80;86.90;;;;;;5032314;28;20543;-56
2021/06/29 06:02:35;;;;;;;5.70;4.40;;;22.90;86.60;;;;;;5014125;28;20065;-56
2021/06/29 06:05:00;;;;;;;6.05;4.90;;;23.00;86.50;;;;;;5032232;28;20123;-58
2021/06/29 06:07:26;;;;;;;6.95;4.40;;;23.10;86.30;;;;;;5013835;28;20025;-56
2021/06/29 06:09:52;;;;;;;7.53;4.65;;;23.10;85.90;;;;;;5033007;28;20044;-55
2021/06/29 06:12:17;;;;;;;24.25;8.23;;;23.20;86.10;;;;;;5032135;28;20133;-57
2021/06/29 06:14:43;;;;;;;32.65;8.73;;;23.10;86.10;;;;;;5032047;28;20539;-57
2021/06/29 06:17:08;;;;;;;56.22;13.65;;;23.10;87.00;;;;;;5031432;28;20443;-53
2021/06/29 06:19:34;;;;;;;21.27;8.43;;;23.10;87.30;;;;;;5032020;28;20029;-55
2021/06/29 06:21:59;;;;;;;16.63;7.28;;;23.20;87.10;;;;;;5031969;28;20037;-56
2021/06/29 06:24:25;;;;;;;8.95;5.90;;;23.00;87.50;;;;;;5015131;28;20385;-56
2021/06/29 06:26:51;;;;;;;11.30;4.93;;;22.90;87.60;;;;;;5031037;28;20029;-56
2021/06/29 06:29:16;;;;;;;11.90;4.82;;;22.90;87.20;;;;;;5031413;28;20181;-54
2021/06/29 06:31:42;;;;;;;6.80;4.40;;;23.10;87.10;;;;;;5030942;28;20049;-55
2021/06/29 06:34:08;;;;;;;6.93;4.22;;;23.20;86.90;;;;;;5023020;28;20041;-59
2021/06/29 06:36:33;;;;;;;6.55;4.38;;;23.40;85.50;;;;;;5024120;28;20173;-54
2021/06/29 06:38:59;;;;;;;9.52;4.68;;;23.50;85.30;;;;;;5031118;28;20120;-56
2021/06/29 06:41:25;;;;;;;10.25;4.72;;;23.60;85.00;;;;;;5013817;28;20029;-56
2021/06/29 06:43:51;;;;;;;12.10;4.80;;;23.60;84.90;;;;;;5013336;28;20076;-57
2021/06/29 06:46:16;;;;;;;10.63;4.47;;;23.50;84.80;;;;;;5030853;28;20041;-59
2021/06/29 06:48:42;;;;;;;9.55;4.82;;;23.60;85.00;;;;;;5031427;28;20420;-57
2021/06/29 06:51:09;;;;;;;5.53;4.25;;;23.70;85.30;;;;;;5013305;28;20104;-58
2021/06/29 06:53:35;;;;;;;8.20;4.45;;;23.60;84.40;;;;;;5013898;28;20105;-60
2021/06/29 06:56:01;;;;;;;5.80;4.60;;;23.20;85.90;;;;;;5022970;28;20049;-58
2021/06/29 06:58:26;;;;;;;13.15;5.47;;;23.20;86.00;;;;;;5035033;28;20033;-58
2021/06/29 07:00:53;;;;;;;10.65;5.40;;;23.40;85.90;;;;;;5034594;28;20112;-53
2021/06/29 07:03:18;;;;;;;12.32;6.28;;;23.20;86.30;;;;;;5030615;28;20512;-58
2021/06/29 07:05:44;;;;;;;7.93;6.30;;;23.00;87.40;;;;;;5017217;28;20086;-57
2021/06/29 07:08:09;;;;;;;13.90;7.82;;;23.00;87.70;;;;;;5015284;28;20446;-55
2021/06/29 07:10:35;;;;;;;9.65;6.53;;;22.90;88.30;;;;;;5035431;28;20045;-56
2021/06/29 07:13:01;;;;;;;10.98;6.43;;;22.90;88.50;;;;;;5035049;28;20028;-56
2021/06/29 07:15:28;;;;;;;5.72;4.70;;;22.90;88.10;;;;;;5035062;28;20029;-56
2021/06/29 07:17:54;;;;;;;9.85;5.32;;;22.90;88.00;;;;;;5034937;28;20037;-54
2021/06/29 07:20:20;;;;;;;7.60;5.03;;;22.70;88.90;;;;;;5034412;28;20021;-56
2021/06/29 07:22:45;;;;;;;7.72;4.50;;;22.80;88.70;;;;;;5035188;28;20026;-57
2021/06/29 07:25:11;;;;;;;18.27;6.72;;;22.80;88.30;;;;;;5017677;28;20025;-55
2021/06/29 07:27:37;;;;;;;28.80;8.52;;;22.70;89.00;;;;;;5025856;28;20730;-58
2021/06/29 07:30:07;;;;;;;26.33;6.80;;;22.50;90.00;;;;;;5020520;28;20174;-57
2021/06/29 07:32:33;;;;;;;9.25;4.10;;;22.30;90.20;;;;;;5015240;28;20030;-55
2021/06/29 07:34:59;;;;;;;8.25;4.65;;;22.10;90.50;;;;;;5019692;28;20032;-52
2021/06/29 07:37:25;;;;;;;8.23;4.47;;;22.20;90.60;;;;;;5017908;28;20513;-50
2021/06/29 07:39:51;;;;;;;7.18;4.40;;;22.30;90.60;;;;;;5021230;28;20060;-53
2021/06/29 07:42:17;;;;;;;6.45;4.90;;;22.40;90.50;;;;;;5024997;28;20637;-55
2021/06/29 07:44:44;;;;;;;8.15;4.70;;;22.10;91.30;;;;;;5025273;28;20029;-50
2021/06/29 07:47:09;;;;;;;8.98;4.28;;;21.90;91.80;;;;;;5007235;28;20416;-56
2021/06/29 07:49:35;;;;;;;7.75;4.18;;;22.00;91.70;;;;;;5017953;28;20037;-50
2021/06/29 07:52:02;;;;;;;7.43;4.70;;;22.00;91.90;;;;;;5034795;28;20040;-53
2021/06/29 07:54:28;;;;;;;16.17;5.13;;;22.00;91.80;;;;;;5035244;28;20091;-54
2021/06/29 07:56:53;;;;;;;9.57;4.30;;;22.20;91.60;;;;;;5034427;28;20038;-56
2021/06/29 07:59:19;;;;;;;5.43;4.10;;;22.30;91.50;;;;;;5034566;28;20025;-54
2021/06/29 08:01:45;;;;;;;4.30;3.70;;;22.10;91.70;;;;;;5034142;28;20029;-50
2021/06/29 08:04:10;;;;;;;8.20;3.80;;;21.90;92.10;;;;;;5033923;28;20040;-54
2021/06/29 08:06:36;;;;;;;6.28;4.05;;;21.60;92.60;;;;;;5034044;28;20032;-59
2021/06/29 08:09:03;;;;;;;5.70;4.05;;;21.60;92.80;;;;;;5034453;28;20044;-52
2021/06/29 08:11:29;;;;;;;9.77;4.80;;;21.30;93.30;;;;;;5035085;28;20080;-55
2021/06/29 08:13:55;;;;;;;4.72;4.13;;;21.40;93.40;;;;;;5034094;28;20041;-54
2021/06/29 08:16:21;;;;;;;5.20;4.28;;;21.50;93.90;;;;;;5015937;28;20044;-53
2021/06/29 08:18:46;;;;;;;6.95;4.43;;;21.60;93.90;;;;;;5033704;28;20045;-57
2021/06/29 08:21:12;;;;;;;7.78;5.07;;;21.60;94.10;;;;;;5034441;28;20048;-56
2021/06/29 08:23:38;;;;;;;8.10;4.50;;;21.80;93.90;;;;;;5034330;28;20026;-55
2021/06/29 08:26:04;;;;;;;6.35;5.10;;;21.60;94.10;;;;;;5034050;28;20025;-57
2021/06/29 08:28:33;;;;;;;6.05;4.38;;;21.50;94.40;;;;;;5033923;28;20041;-59
2021/06/29 08:31:00;;;;;;;7.07;4.28;;;21.70;93.60;;;;;;5020712;28;20078;-60
2021/06/29 08:33:25;;;;;;;5.15;3.90;;;21.80;93.60;;;;;;5033514;28;20029;-56
2021/06/29 08:35:51;;;;;;;6.32;4.18;;;22.00;93.20;;;;;;5038447;28;20037;-58
2021/06/29 08:38:19;;;;;;;4.72;4.20;;;22.20;92.80;;;;;;5035803;28;20516;-56
2021/06/29 08:40:45;;;;;;;8.88;4.80;;;22.30;92.40;;;;;;5034965;28;20498;-56
2021/06/29 08:43:12;;;;;;;9.70;5.22;;;22.50;92.20;;;;;;5033516;28;20029;-55
2021/06/29 08:45:38;;;;;;;7.13;5.03;;;22.60;92.30;;;;;;5033496;28;20030;-56
2021/06/29 08:48:04;;;;;;;6.43;4.57;;;22.60;91.90;;;;;;5033274;28;20084;-60
2021/06/29 08:50:31;;;;;;;15.07;5.78;;;22.40;92.10;;;;;;5033646;28;20021;-55
2021/06/29 08:53:05;;;;;;;40.65;8.90;;;22.10;93.10;;;;;;5033233;28;20388;-55
2021/06/29 08:55:37;;;;;;;16.98;6.75;;;22.00;93.50;;;;;;5032768;28;20060;-57
2021/06/29 08:58:03;;;;;;;11.57;6.38;;;22.20;93.20;;;;;;5033172;28;20563;-56
2021/06/29 09:00:29;;;;;;;9.48;4.90;;;22.30;93.20;;;;;;5033113;28;20037;-54
2021/06/29 09:02:55;;;;;;;12.80;5.45;;;22.30;93.10;;;;;;5015550;28;20025;-53
2021/06/29 09:05:29;;;;;;;10.40;5.18;;;22.50;93.00;;;;;;5032633;28;20037;-52
2021/06/29 09:08:13;;;;;;;5.88;5.10;;;22.60;92.90;;;;;;5032990;28;20030;-56
2021/06/29 09:10:41;;;;;;;8.13;4.65;;;22.80;92.60;;;;;;5033200;28;20025;-55
2021/06/29 09:13:08;;;;;;;9.10;5.70;;;22.90;92.30;;;;;;5033270;28;20041;-54
2021/06/29 09:15:38;;;;;;;6.90;5.15;;;23.00;92.20;;;;;;5032626;28;20045;-57
2021/06/29 09:18:06;;;;;;;7.38;5.47;;;23.10;92.30;;;;;;5034165;28;20041;-55
2021/06/29 09:20:41;;;;;;;6.68;5.07;;;23.30;92.00;;;;;;5033620;28;20040;-56
2021/06/29 09:23:15;;;;;;;5.38;4.88;;;23.50;91.80;;;;;;5033076;28;20095;-55
2021/06/29 09:25:57;;;;;;;6.20;5.00;;;23.50;91.60;;;;;;5032559;28;20472;-55
2021/06/29 09:28:30;;;;;;;8.57;5.38;;;23.60;91.40;;;;;;5032532;28;20052;-57
2021/06/29 09:30:58;;;;;;;8.60;5.50;;;23.70;91.30;;;;;;5015847;28;20037;-57
2021/06/29 09:33:26;;;;;;;6.28;5.22;;;23.70;91.00;;;;;;5032160;28;20049;-55
2021/06/29 09:35:54;;;;;;;8.80;5.82;;;23.60;91.30;;;;;;5032178;28;20037;-56
2021/06/29 09:38:26;;;;;;;9.13;7.13;;;23.60;91.00;;;;;;5033788;28;20665;-57
2021/06/29 09:41:07;;;;;;;8.80;7.90;;;23.80;91.10;;;;;;5032429;28;20609;-53
2021/06/29 09:43:39;;;;;;;8.43;6.65;;;24.00;91.00;;;;;;5032000;28;20034;-53
2021/06/29 09:46:08;;;;;;;9.10;6.63;;;24.00;91.00;;;;;;5014672;28;20056;-58
2021/06/29 09:48:43;;;;;;;10.57;5.25;;;24.10;90.90;;;;;;5032113;28;20032;-53
2021/06/29 09:51:26;;;;;;;8.05;5.05;;;24.00;91.00;;;;;;5032566;28;20075;-50
2021/06/29 09:53:54;;;;;;;5.65;5.05;;;23.60;91.50;;;;;;5032481;28;20037;-55
2021/06/29 09:56:25;;;;;;;6.88;5.28;;;23.40;91.80;;;;;;5032015;28;20037;-54
2021/06/29 09:58:56;;;;;;;6.22;5.72;;;23.20;92.20;;;;;;5033343;28;20029;-56
2021/06/29 10:01:26;;;;;;;6.18;5.57;;;23.10;92.40;;;;;;5033467;28;20033;-56
2021/06/29 10:03:52;;;;;;;7.47;4.97;;;23.10;92.40;;;;;;5032992;28;20045;-58
2021/06/29 10:06:23;;;;;;;6.57;5.25;;;23.00;92.70;;;;;;5031980;28;20144;-56
2021/06/29 10:08:54;;;;;;;5.93;5.18;;;23.20;92.60;;;;;;5032331;28;20029;-54
2021/06/29 10:11:31;;;;;;;6.13;5.50;;;23.30;92.50;;;;;;5032064;28;20474;-57
2021/06/29 10:14:00;;;;;;;6.13;5.53;;;23.30;92.70;;;;;;5032847;28;20037;-53
2021/06/29 10:16:29;;;;;;;5.95;5.32;;;23.50;92.40;;;;;;5032365;28;20037;-55
2021/06/29 10:21:27;;;;;;;7.82;5.75;;;23.70;91.90;;;;;;5032177;28;20040;-54
2021/06/29 10:23:55;;;;;;;8.88;6.05;;;23.80;91.70;;;;;;5031853;28;20123;-57
2021/06/29 10:26:22;;;;;;;7.07;6.32;;;24.00;91.00;;;;;;5032073;28;20055;-56
2021/06/29 10:28:50;;;;;;;7.45;6.22;;;23.90;91.00;;;;;;5036148;28;20034;-55
2021/06/29 10:31:28;;;;;;;6.35;5.75;;;24.00;90.80;;;;;;5038539;28;20053;-60
2021/06/29 10:33:56;;;;;;;7.35;5.10;;;24.00;90.60;;;;;;5038633;28;20041;-53
2021/06/29 10:36:23;;;;;;;5.93;5.35;;;24.30;89.60;;;;;;5037576;28;20085;-59
2021/06/29 10:38:50;;;;;;;5.70;5.20;;;24.00;90.10;;;;;;5021047;28;20042;-57
2021/06/29 10:41:21;;;;;;;8.07;5.03;;;24.20;90.10;;;;;;5038068;28;20049;-53
2021/06/29 10:43:47;;;;;;;5.20;4.70;;;24.60;86.40;;;;;;5037956;28;20507;-54
2021/06/29 10:46:34;;;;;;;6.28;4.30;;;24.80;85.80;;;;;;5020340;28;20041;-55
2021/06/29 10:49:51;;;;;;;5.28;4.03;;;25.20;83.60;;;;;;5038224;28;20032;-57
2021/06/29 10:52:22;;;;;;;4.22;3.83;;;25.40;81.20;;;;;;4981128;28;20076;-54
2021/06/29 10:54:57;;;;;;;4.40;4.00;;;25.30;83.00;;;;;;5038165;28;20557;-55
2021/06/29 10:57:26;;;;;;;4.43;4.03;;;25.50;81.70;;;;;;5031919;28;20132;-51
2021/06/29 10:59:55;;;;;;;4.38;3.97;;;25.50;81.30;;;;;;5038339;28;20575;-56
2021/06/29 11:02:30;;;;;;;4.55;4.15;;;25.30;79.70;;;;;;5032430;28;20130;-57
2021/06/29 11:04:58;;;;;;;4.70;4.25;;;25.20;81.70;;;;;;5033570;28;20037;-61
2021/06/29 11:07:27;;;;;;;4.30;3.90;;;25.70;81.30;;;;;;5037458;28;20033;-56
2021/06/29 11:09:58;;;;;;;4.93;4.18;;;26.10;79.20;;;;;;5037543;28;20831;-56
2021/06/29 11:12:42;;;;;;;5.63;3.88;;;26.20;79.30;;;;;;5035040;28;20064;-57
2021/06/29 11:15:09;;;;;;;4.55;4.15;;;26.40;78.40;;;;;;5023672;28;20400;-60
2021/06/29 11:17:50;;;;;;;4.60;4.20;;;26.10;78.60;;;;;;5036272;28;20029;-60
2021/06/29 11:20:38;;;;;;;4.53;3.92;;;25.90;79.00;;;;;;5038106;28;20014;-57
2021/06/29 11:23:32;;;;;;;4.68;4.13;;;25.80;79.10;;;;;;5018345;28;20033;-57
2021/06/29 11:26:16;;;;;;;5.93;4.97;;;26.00;79.10;;;;;;5041321;28;20169;-58
2021/06/29 11:28:44;;;;;;;7.72;5.00;;;25.90;80.50;;;;;;5038386;28;20041;-57
2021/06/29 11:31:29;;;;;;;6.68;5.32;;;26.00;79.50;;;;;;5027084;28;20045;-58
2021/06/29 11:33:57;;;;;;;6.18;4.70;;;26.10;79.60;;;;;;5019177;28;20029;-60
2021/06/29 11:36:26;;;;;;;5.85;4.70;;;26.00;79.80;;;;;;5034035;28;20029;-60
2021/06/29 11:38:53;;;;;;;5.28;4.78;;;25.90;79.80;;;;;;5037257;28;20033;-56
2021/06/29 11:41:27;;;;;;;5.65;5.10;;;25.60;81.60;;;;;;5034334;28;20087;-59
2021/06/29 11:44:08;;;;;;;5.40;4.50;;;25.60;81.00;;;;;;5016623;28;20566;-60
2021/06/29 11:47:00;;;;;;;5.20;4.68;;;25.50;81.80;;;;;;5033708;28;20052;-56
2021/06/29 11:49:41;;;;;;;7.75;5.57;;;25.40;82.20;;;;;;5031807;28;20057;-59
2021/06/29 11:52:18;;;;;;;7.78;5.65;;;25.50;82.50;;;;;;5034992;28;20049;-56
2021/06/29 11:54:59;;;;;;;7.63;5.72;;;25.50;82.40;;;;;;5034591;28;20491;-59
2021/06/29 11:57:32;;;;;;;7.80;5.05;;;25.40;82.80;;;;;;5034074;28;20477;-59
2021/06/29 12:00:07;;;;;;;5.45;4.65;;;25.50;82.20;;;;;;5032609;28;20034;-60
2021/06/29 12:02:33;;;;;;;7.78;5.50;;;25.50;83.00;;;;;;5020607;28;20037;-55
2021/06/29 12:05:06;;;;;;;6.45;4.97;;;25.10;84.20;;;;;;5034314;28;20552;-58
2021/06/29 12:07:38;;;;;;;6.97;5.63;;;25.20;84.10;;;;;;5033448;28;20026;-58
2021/06/29 12:10:28;;;;;;;7.50;5.50;;;25.00;85.10;;;;;;5035208;28;20155;-55
2021/06/29 12:12:56;;;;;;;8.60;5.25;;;25.00;85.40;;;;;;5021611;28;20039;-58
2021/06/29 12:15:34;;;;;;;6.28;5.70;;;25.10;85.40;;;;;;5034240;28;20092;-58
2021/06/29 12:18:14;;;;;;;9.48;7.38;;;25.30;84.70;;;;;;5021230;28;20029;-58
2021/06/29 12:20:39;;;;;;;12.18;6.88;;;25.30;83.20;;;;;;5034065;28;20398;-55
2021/06/29 12:23:09;;;;;;;7.80;6.18;;;25.30;82.90;;;;;;5033724;28;20033;-59
2021/06/29 12:25:38;;;;;;;6.72;5.97;;;25.30;83.10;;;;;;5033384;28;20052;-59
2021/06/29 12:28:15;;;;;;;15.40;7.18;;;25.30;83.10;;;;;;5019351;28;20497;-59
2021/06/29 12:30:46;;;;;;;8.98;6.88;;;25.30;83.20;;;;;;5033801;28;20087;-56
2021/06/29 12:33:34;;;;;;;9.57;6.40;;;25.10;83.70;;;;;;5002541;28;20060;-61
2021/06/29 12:36:11;;;;;;;14.65;9.82;;;25.00;84.10;;;;;;5019635;28;20253;-58
2021/06/29 12:38:41;;;;;;;10.32;9.30;;;24.90;85.10;;;;;;5019327;28;20444;-60
2021/06/29 12:41:37;;;;;;;7.82;6.60;;;24.90;85.90;;;;;;5009701;28;20044;-57
2021/06/29 12:44:13;;;;;;;8.98;7.55;;;24.90;86.90;;;;;;5012814;28;20091;-57
2021/06/29 12:46:41;;;;;;;8.98;6.55;;;24.80;88.20;;;;;;5015240;28;20029;-59
2021/06/29 12:49:11;;;;;;;7.22;6.53;;;24.80;88.40;;;;;;5033485;28;20563;-59
2021/06/29 12:51:46;;;;;;;12.98;7.53;;;24.70;88.90;;;;;;5032849;28;20029;-59